Time;durP1;ratioP1;P1;durP2;ratioP2;P2;SDS_P1;SDS_P2;PMS_P1;PMS_P2;Temp;Humidity;BMP_temperature;BMP_pressure;BME280_temperature;BME280_humidity;BME280_pressure;Samples;Min_cycle;Max_cycle;Signal;HPM_P1;HPM_P2
2022/07/06 00:00:06;;;;;;;1.85;1.75;;;14.40;99.90;;;;;;4983293;28;20404;-38
2022/07/06 00:02:32;;;;;;;2.40;2.20;;;14.50;99.90;;;;;;4972976;28;20054;-36
2022/07/06 00:04:57;;;;;;;2.30;2.10;;;14.60;99.90;;;;;;4977791;28;20031;-36
2022/07/06 00:07:23;;;;;;;2.25;2.13;;;14.60;99.90;;;;;;4974979;28;20358;-38
2022/07/06 00:09:49;;;;;;;2.10;1.83;;;14.70;99.90;;;;;;4977669;28;20046;-36
2022/07/06 00:12:15;;;;;;;2.30;2.10;;;14.60;99.90;;;;;;4977936;28;20034;-36
2022/07/06 00:14:41;;;;;;;3.55;1.90;;;14.60;99.90;;;;;;4975713;28;20098;-38
2022/07/06 00:17:06;;;;;;;3.20;2.17;;;14.70;99.90;;;;;;4978529;28;20027;-36
2022/07/06 00:19:32;;;;;;;1.88;1.77;;;14.60;99.90;;;;;;4977753;28;20155;-38
2022/07/06 00:21:58;;;;;;;2.35;2.15;;;14.50;99.90;;;;;;4977040;28;20035;-38
2022/07/06 00:24:24;;;;;;;2.20;2.10;;;14.30;99.90;;;;;;4977668;28;20046;-36
2022/07/06 00:26:49;;;;;;;2.42;2.22;;;14.10;99.90;;;;;;4974302;28;20050;-37
2022/07/06 00:29:15;;;;;;;2.40;2.20;;;13.70;99.90;;;;;;4960566;28;20023;-38
2022/07/06 00:31:41;;;;;;;2.83;2.25;;;13.40;99.90;;;;;;4976798;28;20043;-36
2022/07/06 00:34:06;;;;;;;2.53;2.33;;;13.20;99.90;;;;;;4980428;28;20843;-39
2022/07/06 00:36:32;;;;;;;3.35;2.50;;;13.10;99.90;;;;;;4975179;28;20027;-36
2022/07/06 00:38:57;;;;;;;3.85;2.20;;;13.10;99.90;;;;;;4975748;28;20035;-36
2022/07/06 00:41:23;;;;;;;2.65;2.45;;;13.20;99.90;;;;;;4971371;28;20392;-38
2022/07/06 00:43:55;;;;;;;4.03;2.55;;;13.40;99.90;;;;;;4956996;28;20061;-37
2022/07/06 00:46:25;;;;;;;2.47;2.28;;;13.50;99.90;;;;;;4975869;28;20034;-38
2022/07/06 00:48:50;;;;;;;2.20;2.10;;;13.60;99.90;;;;;;4978999;28;20121;-36
2022/07/06 00:51:17;;;;;;;2.30;2.15;;;13.50;99.90;;;;;;4975522;28;20062;-38
2022/07/06 00:53:43;;;;;;;2.40;2.20;;;13.50;99.90;;;;;;4976642;28;20073;-37
2022/07/06 00:56:10;;;;;;;2.60;2.40;;;13.30;99.90;;;;;;4976950;28;20026;-39
2022/07/06 00:58:36;;;;;;;3.00;2.70;;;13.10;99.90;;;;;;4973169;28;20027;-37
2022/07/06 01:01:01;;;;;;;2.72;2.53;;;12.90;99.90;;;;;;4975269;28;20039;-37
2022/07/06 01:03:27;;;;;;;2.22;2.10;;;12.60;99.90;;;;;;4976961;28;20034;-37
2022/07/06 01:05:53;;;;;;;3.10;2.53;;;12.50;99.90;;;;;;4978002;28;20756;-37
2022/07/06 01:08:19;;;;;;;2.95;2.70;;;12.50;99.90;;;;;;4975322;28;20031;-37
2022/07/06 01:10:44;;;;;;;2.90;2.70;;;12.50;99.90;;;;;;4975661;28;20034;-37
2022/07/06 01:13:10;;;;;;;2.67;2.47;;;12.50;99.90;;;;;;4957910;28;20035;-36
2022/07/06 01:15:35;;;;;;;3.03;2.60;;;12.50;99.90;;;;;;4975778;28;20486;-37
2022/07/06 01:18:02;;;;;;;3.58;2.58;;;12.60;99.90;;;;;;4971911;28;20023;-39
2022/07/06 01:20:29;;;;;;;2.45;2.35;;;12.90;99.90;;;;;;4981982;28;20030;-36
2022/07/06 01:22:56;;;;;;;3.83;3.20;;;12.90;99.90;;;;;;4975577;28;20555;-38
2022/07/06 01:25:22;;;;;;;3.63;2.63;;;13.00;99.90;;;;;;4982222;28;20107;-38
2022/07/06 01:27:48;;;;;;;2.50;2.30;;;13.10;99.90;;;;;;4975004;28;20532;-39
2022/07/06 01:30:16;;;;;;;2.28;2.17;;;13.30;99.90;;;;;;4982453;28;20480;-37
2022/07/06 01:32:43;;;;;;;2.65;2.45;;;13.40;99.90;;;;;;4977062;28;20115;-39
2022/07/06 01:35:11;;;;;;;2.38;2.22;;;13.40;99.90;;;;;;4982192;28;20428;-38
2022/07/06 01:37:37;;;;;;;2.90;2.63;;;13.40;99.90;;;;;;4976930;28;20030;-37
2022/07/06 01:40:05;;;;;;;2.45;2.25;;;13.50;99.90;;;;;;4980061;28;20039;-37
2022/07/06 01:42:31;;;;;;;2.50;2.30;;;13.50;99.90;;;;;;4973519;28;20129;-38
2022/07/06 01:44:57;;;;;;;2.55;2.33;;;13.30;99.90;;;;;;4980973;28;20530;-36
2022/07/06 01:47:23;;;;;;;3.00;2.67;;;13.20;99.90;;;;;;4974329;28;20031;-39
2022/07/06 01:49:49;;;;;;;2.67;2.47;;;13.20;99.90;;;;;;4980016;28;20034;-38
2022/07/06 01:52:15;;;;;;;2.78;2.50;;;13.20;99.90;;;;;;4975661;28;20031;-37
2022/07/06 01:54:40;;;;;;;3.20;2.20;;;13.20;99.90;;;;;;4980446;28;20026;-35
2022/07/06 01:57:06;;;;;;;3.97;2.70;;;13.20;99.90;;;;;;4976229;28;20030;-37
2022/07/06 01:59:32;;;;;;;2.70;2.50;;;13.30;99.90;;;;;;4979078;28;20038;-37
2022/07/06 02:01:57;;;;;;;3.88;2.50;;;13.30;99.90;;;;;;4978283;28;20141;-39
2022/07/06 02:04:23;;;;;;;2.47;2.30;;;13.40;99.90;;;;;;4976907;28;20027;-36
2022/07/06 02:06:49;;;;;;;2.97;2.67;;;13.50;99.90;;;;;;4978896;28;20058;-38
2022/07/06 02:09:15;;;;;;;4.50;2.72;;;13.60;99.90;;;;;;4976569;28;20034;-40
2022/07/06 02:11:41;;;;;;;2.83;2.45;;;13.30;99.90;;;;;;4979268;28;20049;-37
2022/07/06 02:14:07;;;;;;;2.70;2.50;;;13.40;99.90;;;;;;4977149;28;20487;-38
2022/07/06 02:16:32;;;;;;;3.03;2.65;;;13.40;99.90;;;;;;4976930;28;20377;-39
2022/07/06 02:18:58;;;;;;;2.22;2.10;;;13.00;99.90;;;;;;4975515;28;20093;-39
2022/07/06 02:21:23;;;;;;;2.65;2.45;;;13.00;99.90;;;;;;4974388;28;20488;-38
2022/07/06 02:23:49;;;;;;;2.95;2.75;;;12.90;99.90;;;;;;4975370;28;20038;-39
2022/07/06 02:26:15;;;;;;;2.60;2.40;;;12.60;99.90;;;;;;4975046;28;20045;-38
2022/07/06 02:28:40;;;;;;;2.95;2.72;;;12.60;99.90;;;;;;4975046;28;20038;-39
2022/07/06 02:31:06;;;;;;;2.80;2.60;;;12.70;99.90;;;;;;4974210;28;20046;-37
2022/07/06 02:33:32;;;;;;;3.22;2.80;;;12.60;99.90;;;;;;4974600;28;20490;-40
2022/07/06 02:35:57;;;;;;;3.03;2.83;;;12.60;99.90;;;;;;4973024;28;20089;-38
2022/07/06 02:38:23;;;;;;;5.55;2.95;;;12.60;99.90;;;;;;4973995;28;20074;-36
2022/07/06 02:40:48;;;;;;;3.42;2.45;;;12.80;99.90;;;;;;4975223;28;20019;-38
2022/07/06 02:43:14;;;;;;;3.00;2.80;;;12.90;99.90;;;;;;4975567;28;20478;-39
2022/07/06 02:45:40;;;;;;;2.97;2.70;;;13.10;99.90;;;;;;4976074;28;20023;-37
2022/07/06 02:48:05;;;;;;;2.90;2.70;;;13.20;99.90;;;;;;4976050;28;20030;-39
2022/07/06 02:50:31;;;;;;;5.15;2.80;;;13.20;99.90;;;;;;4977992;28;20038;-39
2022/07/06 02:52:58;;;;;;;2.88;2.67;;;13.30;99.90;;;;;;4977554;28;20093;-39
2022/07/06 02:55:24;;;;;;;4.10;2.80;;;13.20;99.90;;;;;;4977266;28;20035;-36
2022/07/06 02:57:49;;;;;;;2.80;2.60;;;13.20;99.90;;;;;;4959061;28;20030;-37
2022/07/06 03:00:16;;;;;;;3.13;2.90;;;13.30;99.90;;;;;;4976773;28;20023;-40
2022/07/06 03:02:41;;;;;;;2.80;2.60;;;13.30;99.90;;;;;;4980432;28;20042;-36
2022/07/06 03:05:07;;;;;;;3.05;2.85;;;13.30;99.90;;;;;;4978253;28;20054;-38
2022/07/06 03:07:33;;;;;;;4.38;3.03;;;13.30;99.90;;;;;;4976640;28;20043;-39
2022/07/06 03:09:58;;;;;;;2.78;2.55;;;13.40;99.90;;;;;;4975871;28;20031;-38
2022/07/06 03:12:24;;;;;;;2.83;2.63;;;13.40;99.90;;;;;;4980649;28;21471;-39
2022/07/06 03:14:50;;;;;;;2.67;2.47;;;13.40;99.90;;;;;;4976862;28;20034;-39
2022/07/06 03:17:15;;;;;;;3.17;2.97;;;13.40;99.90;;;;;;4977350;28;20384;-39
2022/07/06 03:19:41;;;;;;;3.72;2.70;;;13.30;99.90;;;;;;4977921;28;20041;-38
2022/07/06 03:22:06;;;;;;;3.15;2.83;;;13.20;99.90;;;;;;4974805;28;20023;-37
2022/07/06 03:24:32;;;;;;;2.90;2.70;;;13.30;99.90;;;;;;4977890;28;20026;-37
2022/07/06 03:26:57;;;;;;;5.05;3.13;;;13.20;99.90;;;;;;4979792;28;20165;-39
2022/07/06 03:29:23;;;;;;;4.65;3.17;;;13.20;99.90;;;;;;4957929;28;20045;-39
2022/07/06 03:31:49;;;;;;;2.85;2.65;;;13.20;99.90;;;;;;4976164;28;20089;-36
2022/07/06 03:34:15;;;;;;;3.40;3.10;;;13.10;99.90;;;;;;4974245;28;20027;-39
2022/07/06 03:36:40;;;;;;;5.07;3.03;;;12.90;99.90;;;;;;4974297;28;20022;-40
2022/07/06 03:39:06;;;;;;;3.70;3.40;;;12.40;99.90;;;;;;4973992;28;20030;-38
2022/07/06 03:41:32;;;;;;;5.25;3.22;;;12.10;99.90;;;;;;4974400;28;20512;-37
2022/07/06 03:43:58;;;;;;;4.90;3.70;;;11.90;99.90;;;;;;4973449;28;20038;-39
2022/07/06 03:46:24;;;;;;;3.58;3.25;;;11.80;99.90;;;;;;4972795;28;20046;-36
2022/07/06 03:48:49;;;;;;;4.82;3.60;;;11.80;99.90;;;;;;4972659;28;20027;-39
2022/07/06 03:51:15;;;;;;;5.13;3.50;;;11.90;99.90;;;;;;4972263;28;20488;-39
2022/07/06 03:53:41;;;;;;;5.88;3.85;;;12.00;99.90;;;;;;4970476;28;20031;-40
2022/07/06 03:58:51;;;;;;;4.50;3.38;;;12.40;99.90;;;;;;4973057;28;20450;-38
2022/07/06 04:01:16;;;;;;;4.10;3.70;;;12.40;99.90;;;;;;4972190;28;20035;-39
2022/07/06 04:03:42;;;;;;;6.53;3.47;;;12.40;99.90;;;;;;4971608;28;20058;-39
2022/07/06 04:06:07;;;;;;;4.60;3.25;;;12.60;99.90;;;;;;4972401;28;20480;-38
2022/07/06 04:08:33;;;;;;;3.65;3.30;;;12.60;99.90;;;;;;4975988;28;20455;-39
2022/07/06 04:10:59;;;;;;;3.78;3.47;;;12.80;99.90;;;;;;4962422;28;20031;-40
2022/07/06 04:13:25;;;;;;;3.95;3.55;;;12.90;99.90;;;;;;4979356;28;20034;-40
2022/07/06 04:15:51;;;;;;;4.05;3.40;;;13.10;99.90;;;;;;4979941;28;20039;-40
2022/07/06 04:18:16;;;;;;;3.80;3.42;;;13.20;99.90;;;;;;4984300;28;20623;-38
2022/07/06 04:20:42;;;;;;;4.07;3.70;;;13.20;99.90;;;;;;4980429;28;20058;-39
2022/07/06 04:23:08;;;;;;;4.03;3.40;;;13.30;99.90;;;;;;4984181;28;20396;-40
2022/07/06 04:25:34;;;;;;;3.65;3.35;;;13.40;99.90;;;;;;4978403;28;20019;-40
2022/07/06 04:28:00;;;;;;;5.13;3.40;;;13.60;99.90;;;;;;4981835;28;20053;-39
2022/07/06 04:30:26;;;;;;;3.72;3.38;;;13.80;99.90;;;;;;4977737;28;20037;-40
2022/07/06 04:32:52;;;;;;;3.75;3.42;;;13.80;99.90;;;;;;4976408;28;20027;-39
2022/07/06 04:35:17;;;;;;;4.03;3.63;;;13.70;99.90;;;;;;4975057;28;20110;-38
2022/07/06 04:37:45;;;;;;;3.63;3.33;;;13.60;99.90;;;;;;4982333;28;20095;-37
2022/07/06 04:40:11;;;;;;;7.32;3.60;;;13.70;99.90;;;;;;4976442;28;20027;-39
2022/07/06 04:42:37;;;;;;;4.65;3.67;;;13.70;99.90;;;;;;4980635;28;20050;-39
2022/07/06 04:45:04;;;;;;;4.03;3.67;;;13.80;99.90;;;;;;4977795;28;20078;-39
2022/07/06 04:47:30;;;;;;;3.40;3.10;;;13.90;99.90;;;;;;4983863;28;20398;-37
2022/07/06 04:49:55;;;;;;;3.72;3.42;;;14.20;99.90;;;;;;4978975;28;20117;-38
2022/07/06 04:52:21;;;;;;;7.35;3.55;;;14.40;99.90;;;;;;4976827;28;20436;-36
2022/07/06 04:54:47;;;;;;;3.80;3.15;;;14.50;99.90;;;;;;4977426;28;20476;-36
2022/07/06 04:57:12;;;;;;;3.65;3.17;;;14.80;99.90;;;;;;4979741;28;20027;-39
2022/07/06 04:59:38;;;;;;;3.30;3.05;;;15.00;99.90;;;;;;4981221;28;20030;-37
2022/07/06 05:02:04;;;;;;;3.55;3.00;;;15.20;99.90;;;;;;4978795;28;20043;-40
2022/07/06 05:04:29;;;;;;;3.28;3.08;;;15.30;99.90;;;;;;4976478;28;20070;-36
2022/07/06 05:06:55;;;;;;;3.45;3.15;;;15.40;99.90;;;;;;4979618;28;20030;-38
2022/07/06 05:09:21;;;;;;;5.05;3.20;;;15.50;99.90;;;;;;4979018;28;20184;-39
2022/07/06 05:11:46;;;;;;;3.47;3.28;;;15.60;99.90;;;;;;4972973;28;20019;-37
2022/07/06 05:14:12;;;;;;;3.10;2.85;;;15.80;99.90;;;;;;4983166;28;20096;-39
2022/07/06 05:16:37;;;;;;;3.17;2.85;;;16.00;99.90;;;;;;4977458;28;20034;-39
2022/07/06 05:19:03;;;;;;;3.88;3.08;;;16.10;99.90;;;;;;4982211;28;20034;-39
2022/07/06 05:21:29;;;;;;;3.70;3.30;;;16.00;99.90;;;;;;4973185;28;20109;-40
2022/07/06 05:23:54;;;;;;;4.00;2.90;;;16.20;99.90;;;;;;4982665;28;20038;-39
2022/07/06 05:26:20;;;;;;;3.90;2.95;;;16.40;99.90;;;;;;4974648;28;20041;-36
2022/07/06 05:28:46;;;;;;;3.75;2.90;;;16.60;99.90;;;;;;4981140;28;20030;-37
2022/07/06 05:31:11;;;;;;;3.85;3.05;;;16.60;99.90;;;;;;4975790;28;20572;-38
2022/07/06 05:33:38;;;;;;;3.08;2.88;;;16.80;99.90;;;;;;4974484;28;20034;-37
2022/07/06 05:36:04;;;;;;;4.43;2.97;;;16.90;99.90;;;;;;4976601;28;20463;-39
2022/07/06 05:38:29;;;;;;;2.88;2.67;;;17.10;99.90;;;;;;4977578;28;20026;-37
2022/07/06 05:40:55;;;;;;;3.38;3.17;;;17.10;99.90;;;;;;4970152;28;20049;-37
2022/07/06 05:43:21;;;;;;;4.07;2.88;;;17.30;99.90;;;;;;4977117;28;20025;-39
2022/07/06 05:45:46;;;;;;;9.35;2.80;;;17.20;99.90;;;;;;4975260;28;20122;-35
2022/07/06 05:50:56;;;;;;;2.92;2.72;;;17.10;99.10;;;;;;4976332;28;20030;-37
2022/07/06 05:53:22;;;;;;;2.85;2.63;;;17.10;98.10;;;;;;4977946;28;20109;-36
2022/07/06 05:55:48;;;;;;;2.85;2.65;;;17.20;99.80;;;;;;4971651;28;20537;-39
2022/07/06 05:58:14;;;;;;;3.25;2.67;;;17.40;95.80;;;;;;4974735;28;20460;-37
2022/07/06 06:00:40;;;;;;;4.05;2.63;;;17.60;98.70;;;;;;4970835;28;20028;-37
2022/07/06 06:03:05;;;;;;;2.80;2.47;;;17.60;96.90;;;;;;4972971;28;20029;-37
2022/07/06 06:05:31;;;;;;;4.97;2.75;;;17.70;96.20;;;;;;4975260;28;20030;-35
2022/07/06 06:07:57;;;;;;;2.60;2.40;;;17.70;93.90;;;;;;4971056;28;20420;-39
2022/07/06 06:10:23;;;;;;;3.38;2.50;;;17.60;94.30;;;;;;4977565;28;20038;-37
2022/07/06 06:12:49;;;;;;;2.72;2.50;;;17.50;95.10;;;;;;4975825;28;20030;-37
2022/07/06 06:15:14;;;;;;;3.20;2.90;;;17.60;96.60;;;;;;4977099;28;20154;-39
2022/07/06 06:17:40;;;;;;;4.32;3.10;;;17.50;95.00;;;;;;4976397;28;20035;-39
2022/07/06 06:20:11;;;;;;;2.80;2.60;;;17.70;96.70;;;;;;4976594;28;20022;-39
2022/07/06 06:22:55;;;;;;;3.17;2.67;;;17.60;94.40;;;;;;4976201;28;20037;-38
2022/07/06 06:25:34;;;;;;;3.30;2.70;;;17.90;95.00;;;;;;4971220;28;20042;-39
2022/07/06 06:28:00;;;;;;;3.10;2.42;;;18.10;94.00;;;;;;4976043;28;20041;-40
2022/07/06 06:30:26;;;;;;;4.55;2.50;;;18.20;92.10;;;;;;4974822;28;20031;-39
2022/07/06 06:33:03;;;;;;;2.83;2.55;;;18.30;92.90;;;;;;4974588;28;20105;-38
2022/07/06 06:35:29;;;;;;;3.83;2.47;;;18.50;93.30;;;;;;4979228;28;20030;-38
2022/07/06 06:37:54;;;;;;;2.67;2.30;;;18.90;92.60;;;;;;4972037;28;20038;-37
2022/07/06 06:40:20;;;;;;;2.88;2.63;;;19.30;89.00;;;;;;4979611;28;20031;-39
2022/07/06 06:42:45;;;;;;;2.63;2.42;;;19.50;90.40;;;;;;4975856;28;20532;-37
2022/07/06 06:45:11;;;;;;;2.50;2.30;;;19.50;88.00;;;;;;4977081;28;20038;-40
2022/07/06 06:47:37;;;;;;;2.42;2.22;;;19.70;82.00;;;;;;4972372;28;20031;-39
2022/07/06 06:50:02;;;;;;;3.90;2.20;;;19.90;83.00;;;;;;4976209;28;20034;-37
2022/07/06 06:52:28;;;;;;;2.53;2.20;;;20.10;79.70;;;;;;4969038;28;20038;-36
2022/07/06 06:54:54;;;;;;;2.88;2.60;;;19.90;82.00;;;;;;4978664;28;20033;-40
2022/07/06 06:57:19;;;;;;;2.95;2.58;;;19.70;87.00;;;;;;4973664;28;20031;-38
2022/07/06 06:59:45;;;;;;;2.88;2.42;;;19.70;85.00;;;;;;4960552;28;20050;-39
2022/07/06 07:02:10;;;;;;;2.15;2.05;;;20.00;80.00;;;;;;4975963;28;20038;-37
2022/07/06 07:04:36;;;;;;;2.75;2.50;;;20.30;81.80;;;;;;4975531;28;20484;-39
2022/07/06 07:07:02;;;;;;;2.55;2.33;;;20.70;75.20;;;;;;4974419;28;20043;-38
2022/07/06 07:09:27;;;;;;;3.17;2.35;;;20.50;71.30;;;;;;4973736;28;20041;-38
2022/07/06 07:11:53;;;;;;;2.95;2.55;;;20.40;73.20;;;;;;4975752;28;20022;-39
2022/07/06 07:14:18;;;;;;;2.67;2.35;;;20.60;72.60;;;;;;4973242;28;20023;-38
2022/07/06 07:16:44;;;;;;;2.55;2.17;;;21.10;74.10;;;;;;4974592;28;20023;-40
2022/07/06 07:19:10;;;;;;;2.38;2.22;;;21.30;72.80;;;;;;4973934;28;20022;-36
2022/07/06 07:21:35;;;;;;;4.78;2.38;;;21.50;71.00;;;;;;4979094;28;20115;-37
2022/07/06 07:24:01;;;;;;;2.45;2.22;;;21.40;71.60;;;;;;4971035;28;20041;-38
2022/07/06 07:26:26;;;;;;;3.50;2.60;;;21.60;74.80;;;;;;4978617;28;20037;-39
2022/07/06 07:28:52;;;;;;;2.67;2.47;;;21.40;69.90;;;;;;4973736;28;20449;-40
2022/07/06 07:31:17;;;;;;;3.17;2.45;;;21.10;69.50;;;;;;4976119;28;20046;-36
2022/07/06 07:33:43;;;;;;;2.55;2.35;;;20.90;68.80;;;;;;4974716;28;20034;-39
2022/07/06 07:36:09;;;;;;;2.47;2.25;;;21.00;67.70;;;;;;4976533;28;20046;-36
2022/07/06 07:38:34;;;;;;;3.10;2.45;;;21.30;69.90;;;;;;4976121;28;20030;-37
2022/07/06 07:41:00;;;;;;;4.35;2.30;;;21.60;67.70;;;;;;4976398;28;20118;-37
2022/07/06 07:43:26;;;;;;;3.03;2.83;;;21.60;66.20;;;;;;4977955;28;20035;-37
2022/07/06 07:45:52;;;;;;;3.17;2.60;;;21.60;68.10;;;;;;4978291;28;20105;-36
2022/07/06 07:48:17;;;;;;;4.10;2.20;;;21.60;65.30;;;;;;4978340;28;20054;-35
2022/07/06 07:50:43;;;;;;;2.75;2.25;;;21.60;66.80;;;;;;4975620;28;20019;-37
2022/07/06 07:53:09;;;;;;;2.50;2.35;;;22.00;66.10;;;;;;4978971;28;20412;-37
2022/07/06 07:55:34;;;;;;;2.92;2.50;;;21.90;62.90;;;;;;4983361;28;20031;-37
2022/07/06 07:58:00;;;;;;;2.75;2.50;;;21.70;63.90;;;;;;4981127;28;20107;-36
2022/07/06 08:00:28;;;;;;;12.13;2.97;;;21.60;63.80;;;;;;4978895;28;20030;-36
2022/07/06 08:02:54;;;;;;;;;;;21.60;64.80;;;;;;4980397;28;20058;-37
2022/07/06 08:05:20;;;;;;;3.45;2.50;;;21.70;64.90;;;;;;4981361;28;19918;-35
2022/07/06 08:07:46;;;;;;;2.75;2.47;;;21.80;65.30;;;;;;4980869;28;20098;-34
2022/07/06 08:10:11;;;;;;;2.88;2.35;;;21.60;61.40;;;;;;4978862;28;20041;-38
2022/07/06 08:12:37;;;;;;;2.58;2.30;;;21.80;59.30;;;;;;4979762;28;20078;-38
2022/07/06 08:15:04;;;;;;;2.60;2.50;;;22.10;62.60;;;;;;4980285;28;20097;-36
2022/07/06 08:17:30;;;;;;;5.47;2.50;;;22.40;63.60;;;;;;4979797;28;20027;-35
2022/07/06 08:19:56;;;;;;;2.58;2.30;;;23.20;58.90;;;;;;4980228;28;20098;-36
2022/07/06 08:22:22;;;;;;;4.32;2.30;;;23.40;54.80;;;;;;4979378;28;20038;-38
2022/07/06 08:24:48;;;;;;;2.47;2.33;;;23.20;56.30;;;;;;4979041;28;20031;-35
2022/07/06 08:27:14;;;;;;;2.55;2.40;;;22.70;59.00;;;;;;4980710;28;20026;-36
2022/07/06 08:29:40;;;;;;;2.28;1.88;;;22.70;63.10;;;;;;4979474;28;20062;-35
2022/07/06 08:32:06;;;;;;;2.47;2.28;;;23.40;57.70;;;;;;4982537;28;20093;-36
2022/07/06 08:34:31;;;;;;;2.40;2.20;;;24.10;55.60;;;;;;4978009;28;20365;-39
2022/07/06 08:36:57;;;;;;;2.67;1.90;;;24.50;52.70;;;;;;4978385;28;20035;-39
2022/07/06 08:39:23;;;;;;;2.35;2.13;;;24.70;49.80;;;;;;4974894;28;20445;-36
2022/07/06 08:41:50;;;;;;;4.88;2.30;;;24.70;51.70;;;;;;4977167;28;20046;-37
2022/07/06 08:44:17;;;;;;;2.10;1.80;;;24.90;50.40;;;;;;4976715;28;20047;-39
2022/07/06 08:46:43;;;;;;;2.20;2.00;;;25.10;48.10;;;;;;4976730;28;20059;-38
2022/07/06 08:49:12;;;;;;;2.60;2.17;;;25.20;48.70;;;;;;4975480;28;20019;-39
2022/07/06 08:51:38;;;;;;;2.15;2.00;;;24.70;49.50;;;;;;4974078;28;20039;-36
2022/07/06 08:54:04;;;;;;;2.92;2.20;;;24.10;53.10;;;;;;4978743;28;20063;-39
2022/07/06 08:56:30;;;;;;;2.60;2.28;;;24.10;51.90;;;;;;4978879;28;20019;-37
2022/07/06 08:58:56;;;;;;;2.67;2.10;;;23.90;50.50;;;;;;4976858;28;20046;-38
2022/07/06 09:01:22;;;;;;;2.42;2.22;;;23.50;56.50;;;;;;4977578;28;20047;-39
2022/07/06 09:03:53;;;;;;;4.38;2.10;;;23.70;52.60;;;;;;4977877;28;20484;-36
2022/07/06 09:06:27;;;;;;;3.20;2.40;;;24.10;51.30;;;;;;4977462;28;20023;-39
2022/07/06 09:08:55;;;;;;;2.17;2.08;;;24.00;52.50;;;;;;4976730;28;20038;-39
2022/07/06 09:11:22;;;;;;;7.10;2.83;;;23.80;53.50;;;;;;4979221;28;20023;-39
2022/07/06 09:13:48;;;;;;;3.90;2.37;;;23.90;54.10;;;;;;4977587;28;20023;-36
2022/07/06 09:16:15;;;;;;;2.40;2.20;;;23.80;55.70;;;;;;4977559;28;20038;-37
2022/07/06 09:18:44;;;;;;;4.70;2.80;;;23.70;54.40;;;;;;4978429;28;20132;-36
2022/07/06 09:21:10;;;;;;;2.50;2.30;;;23.60;54.00;;;;;;4980379;28;20041;-39
2022/07/06 09:23:37;;;;;;;2.42;2.22;;;23.50;52.90;;;;;;4983456;28;20031;-36
2022/07/06 09:26:05;;;;;;;2.57;2.37;;;23.40;52.40;;;;;;4982943;28;20019;-38
2022/07/06 09:28:43;;;;;;;;;;;23.70;50.20;;;;;;4983636;28;20058;-38
2022/07/06 09:31:09;;;;;;;2.10;2.00;;;24.10;51.60;;;;;;4980505;28;20331;-36
2022/07/06 09:33:35;;;;;;;2.25;2.05;;;24.30;50.10;;;;;;4977071;28;20031;-39
2022/07/06 09:36:02;;;;;;;3.53;2.20;;;24.00;49.60;;;;;;4979986;28;20484;-38
2022/07/06 09:38:28;;;;;;;8.73;2.60;;;24.00;48.90;;;;;;4981992;28;20042;-38
2022/07/06 09:40:54;;;;;;;2.60;2.35;;;23.70;48.20;;;;;;4980382;28;20026;-36
2022/07/06 09:43:22;;;;;;;2.25;2.05;;;23.70;47.50;;;;;;4980604;28;20038;-39
2022/07/06 09:45:57;;;;;;;1.83;1.73;;;24.10;51.10;;;;;;4980594;28;20026;-36
2022/07/06 09:48:27;;;;;;;4.60;2.45;;;24.90;49.30;;;;;;4980284;28;20030;-38
2022/07/06 09:51:03;;;;;;;2.30;2.20;;;24.50;44.90;;;;;;4983025;28;20074;-39
2022/07/06 09:53:29;;;;;;;2.72;2.17;;;24.30;46.80;;;;;;4977307;28;20033;-38
2022/07/06 09:55:58;;;;;;;2.38;2.17;;;24.20;50.00;;;;;;4978555;28;20101;-39
2022/07/06 09:58:24;;;;;;;2.30;2.10;;;23.90;49.80;;;;;;4981025;28;20106;-39
2022/07/06 10:00:51;;;;;;;2.85;2.28;;;24.30;52.30;;;;;;4975167;28;20041;-35
2022/07/06 10:03:17;;;;;;;3.85;2.50;;;25.00;50.50;;;;;;4980898;28;20061;-40
2022/07/06 10:05:49;;;;;;;4.18;2.33;;;25.20;46.80;;;;;;4979346;28;20030;-36
2022/07/06 10:08:17;;;;;;;3.50;2.30;;;25.30;47.70;;;;;;4979668;28;20495;-39
2022/07/06 10:10:43;;;;;;;3.97;2.50;;;25.40;47.60;;;;;;4979000;28;20038;-40
2022/07/06 10:13:10;;;;;;;4.57;2.22;;;25.80;45.50;;;;;;4979027;28;20018;-36
2022/07/06 10:15:38;;;;;;;2.17;2.08;;;24.90;42.70;;;;;;4979038;28;20075;-38
2022/07/06 10:18:06;;;;;;;3.45;2.15;;;24.10;46.50;;;;;;4977667;28;20395;-38
2022/07/06 10:20:36;;;;;;;2.17;1.98;;;24.50;46.60;;;;;;4977093;28;20607;-36
2022/07/06 10:23:03;;;;;;;2.00;1.90;;;25.00;47.80;;;;;;4979867;28;20042;-37
2022/07/06 10:25:30;;;;;;;4.38;2.03;;;25.50;45.20;;;;;;4978238;28;20058;-36
2022/07/06 10:27:56;;;;;;;4.28;3.08;;;24.40;43.40;;;;;;4980667;28;20392;-37
2022/07/06 10:30:24;;;;;;;2.92;2.30;;;24.10;45.80;;;;;;4979562;28;20035;-38
2022/07/06 10:32:50;;;;;;;;;;;24.80;47.70;;;;;;4962306;28;20042;-36
2022/07/06 10:35:19;;;;;;;2.90;2.65;;;24.60;45.40;;;;;;4977820;28;19932;-37
2022/07/06 10:38:02;;;;;;;2.40;2.20;;;24.30;46.70;;;;;;4980438;28;20023;-38
2022/07/06 10:43:17;;;;;;;3.22;2.20;;;23.90;45.80;;;;;;4980450;28;20062;-39
2022/07/06 10:45:45;;;;;;;4.25;2.40;;;23.70;46.20;;;;;;4980659;28;20030;-37
2022/07/06 10:48:11;;;;;;;2.33;2.13;;;23.80;47.60;;;;;;4981401;28;20081;-38
2022/07/06 10:50:45;;;;;;;3.67;2.13;;;23.80;48.30;;;;;;4980918;28;20038;-38
2022/07/06 10:53:13;;;;;;;3.40;2.10;;;23.70;45.90;;;;;;4980522;28;20033;-38
2022/07/06 10:55:43;;;;;;;3.25;2.15;;;23.70;48.30;;;;;;4977675;28;20066;-37
2022/07/06 10:58:10;;;;;;;2.83;1.85;;;23.90;47.30;;;;;;4982345;28;20050;-37
2022/07/06 11:00:53;;;;;;;2.20;1.90;;;23.60;45.60;;;;;;4979675;28;20035;-36
2022/07/06 11:03:36;;;;;;;4.78;1.92;;;23.70;47.10;;;;;;4980882;28;20030;-36
2022/07/06 11:06:02;;;;;;;3.05;1.98;;;23.50;46.40;;;;;;4974863;28;20086;-37
2022/07/06 11:09:00;;;;;;;2.17;1.98;;;23.70;46.10;;;;;;4981193;28;20041;-36
2022/07/06 11:11:34;;;;;;;2.22;2.00;;;23.70;46.50;;;;;;4979717;28;20026;-37
2022/07/06 11:14:07;;;;;;;4.10;2.08;;;23.40;48.30;;;;;;4975476;28;20030;-37
2022/07/06 11:16:52;;;;;;;2.20;1.70;;;23.60;47.20;;;;;;4980710;28;20051;-38
2022/07/06 11:19:20;;;;;;;2.58;2.10;;;23.20;44.50;;;;;;4941871;28;20042;-37
2022/07/06 11:21:56;;;;;;;2.15;1.95;;;23.20;47.20;;;;;;4985501;28;20069;-39
2022/07/06 11:24:30;;;;;;;2.53;2.15;;;23.60;48.20;;;;;;4980435;28;20095;-36
2022/07/06 11:26:57;;;;;;;4.65;1.77;;;23.60;45.40;;;;;;4973518;28;20047;-39
2022/07/06 11:29:24;;;;;;;1.90;1.80;;;23.60;44.70;;;;;;4976164;28;20031;-37
2022/07/06 11:31:55;;;;;;;2.05;1.95;;;23.60;47.30;;;;;;4980178;28;21101;-38
2022/07/06 11:34:26;;;;;;;4.93;1.85;;;23.70;45.80;;;;;;4974542;28;20106;-35
2022/07/06 11:37:15;;;;;;;2.17;2.08;;;23.90;47.40;;;;;;4974684;28;20055;-36
2022/07/06 11:39:42;;;;;;;2.13;2.03;;;24.20;45.30;;;;;;4961156;28;20066;-39
2022/07/06 11:42:10;;;;;;;2.00;1.90;;;23.90;44.20;;;;;;4979652;28;20521;-37
2022/07/06 11:44:37;;;;;;;2.35;1.90;;;23.70;42.60;;;;;;4979806;28;20047;-35
2022/07/06 11:47:04;;;;;;;2.10;1.90;;;23.30;44.70;;;;;;4980033;28;20042;-36
2022/07/06 11:49:31;;;;;;;2.15;1.90;;;23.20;45.20;;;;;;4982344;28;20038;-37
2022/07/06 11:51:57;;;;;;;2.10;2.00;;;23.40;45.00;;;;;;4980248;28;20035;-36
2022/07/06 11:54:24;;;;;;;2.65;2.10;;;23.30;46.30;;;;;;4982072;28;20027;-38
2022/07/06 11:56:53;;;;;;;3.80;2.08;;;23.30;45.30;;;;;;4982951;28;20475;-36
2022/07/06 11:59:31;;;;;;;2.50;1.98;;;23.30;45.40;;;;;;4962483;28;20058;-36
2022/07/06 12:02:04;;;;;;;2.20;2.00;;;23.50;46.00;;;;;;4980220;28;20065;-36
2022/07/06 12:04:31;;;;;;;2.22;2.13;;;23.70;46.70;;;;;;4980820;28;20396;-39
2022/07/06 12:07:09;;;;;;;2.03;1.92;;;23.90;47.20;;;;;;4980768;28;20057;-38
2022/07/06 12:09:36;;;;;;;5.28;2.35;;;23.50;47.70;;;;;;4980939;28;20034;-38
2022/07/06 12:12:03;;;;;;;2.08;1.90;;;23.70;49.60;;;;;;4979740;28;20428;-35
2022/07/06 12:14:30;;;;;;;2.38;2.05;;;23.90;48.00;;;;;;4979788;28;20038;-36
2022/07/06 12:16:56;;;;;;;2.28;2.10;;;24.10;48.10;;;;;;4975790;28;20085;-35
2022/07/06 12:19:22;;;;;;;2.63;2.10;;;24.10;48.00;;;;;;4978179;28;20896;-37
2022/07/06 12:21:50;;;;;;;2.03;1.83;;;23.80;49.10;;;;;;4980250;28;20027;-38
2022/07/06 12:24:33;;;;;;;1.90;1.80;;;23.70;44.60;;;;;;4979743;28;20027;-36
2022/07/06 12:27:16;;;;;;;2.13;1.92;;;23.60;45.40;;;;;;4979939;28;20039;-39
2022/07/06 12:29:42;;;;;;;2.10;1.88;;;23.60;46.60;;;;;;4974615;28;20675;-36
2022/07/06 12:32:18;;;;;;;3.95;2.10;;;23.70;46.70;;;;;;4977621;28;20027;-38
2022/07/06 12:34:44;;;;;;;3.58;1.63;;;23.60;45.20;;;;;;4977803;28;20086;-36
2022/07/06 12:37:13;;;;;;;2.17;1.50;;;23.60;42.40;;;;;;4976869;28;20018;-37
2022/07/06 12:39:45;;;;;;;1.70;1.60;;;23.50;43.50;;;;;;4980358;28;20038;-36
2022/07/06 12:42:14;;;;;;;3.20;1.50;;;23.30;42.30;;;;;;4981307;28;20029;-37
2022/07/06 12:44:46;;;;;;;2.22;2.08;;;23.50;43.00;;;;;;4979281;28;20054;-37
2022/07/06 12:47:12;;;;;;;2.70;1.60;;;23.60;44.20;;;;;;4979745;28;20027;-36
2022/07/06 12:49:39;;;;;;;1.73;1.63;;;23.70;42.80;;;;;;4979068;28;20500;-39
2022/07/06 12:52:11;;;;;;;2.87;1.53;;;23.70;44.20;;;;;;4978911;28;20019;-38
2022/07/06 12:54:46;;;;;;;2.22;1.30;;;23.70;41.50;;;;;;4978238;28;20034;-39